Time;durP1;ratioP1;P1;durP2;ratioP2;P2;SDS_P1;SDS_P2;PMS_P1;PMS_P2;Temp;Humidity;BMP_temperature;BMP_pressure;BME280_temperature;BME280_humidity;BME280_pressure;Samples;Min_cycle;Max_cycle;Signal;HPM_P1;HPM_P2
2022/07/05 00:00:31;;;;;;;;;18.00;17.50;;;;;;;;110259;1264;17617;-47
2022/07/05 00:03:06;;;;;;;;;18.00;17.67;;;;;;;;110271;1265;18565;-44
2022/07/05 00:05:33;;;;;;;;;18.00;17.00;;;;;;;;110265;1264;17719;-46
2022/07/05 00:08:00;;;;;;;;;18.00;18.00;;;;;;;;110324;1264;21583;-46
2022/07/05 00:10:27;;;;;;;;;22.67;19.67;;;;;;;;110278;1265;17776;-49
2022/07/05 00:12:54;;;;;;;;;20.00;18.00;;;;;;;;110277;1265;17499;-48
2022/07/05 00:15:22;;;;;;;;;19.00;19.00;;;;;;;;110172;1264;21493;-46
2022/07/05 00:17:49;;;;;;;;;18.67;18.67;;;;;;;;110137;1264;22724;-49
2022/07/05 00:20:16;;;;;;;;;20.00;19.00;;;;;;;;110311;1264;17515;-48
2022/07/05 00:22:44;;;;;;;;;22.00;20.00;;;;;;;;110337;1264;19563;-47
2022/07/05 00:25:11;;;;;;;;;18.00;17.67;;;;;;;;110291;1264;17749;-47
2022/07/05 00:27:38;;;;;;;;;20.50;19.00;;;;;;;;110239;1264;20536;-45
2022/07/05 00:30:05;;;;;;;;;18.67;18.67;;;;;;;;110279;1264;19507;-51
2022/07/05 00:32:33;;;;;;;;;22.00;20.33;;;;;;;;110228;1264;17732;-46
2022/07/05 00:35:00;;;;;;;;;20.67;19.67;;;;;;;;110290;1262;19450;-46
2022/07/05 00:37:27;;;;;;;;;20.67;20.00;;;;;;;;110286;1264;17518;-46
2022/07/05 00:39:54;;;;;;;;;23.00;22.00;;;;;;;;110286;1264;19496;-49
2022/07/05 00:42:22;;;;;;;;;20.00;19.33;;;;;;;;110299;1264;20178;-47
2022/07/05 00:44:49;;;;;;;;;20.33;20.33;;;;;;;;110300;1263;20545;-48
2022/07/05 00:47:16;;;;;;;;;22.00;21.33;;;;;;;;110314;1264;19256;-50
2022/07/05 00:49:43;;;;;;;;;19.67;19.67;;;;;;;;110320;1265;17403;-49
2022/07/05 00:52:10;;;;;;;;;23.33;22.00;;;;;;;;110266;1264;18319;-46
2022/07/05 00:54:38;;;;;;;;;23.33;23.00;;;;;;;;110289;1264;17983;-48
2022/07/05 00:57:05;;;;;;;;;24.00;23.00;;;;;;;;110316;1265;20122;-49
2022/07/05 00:59:32;;;;;;;;;22.33;21.67;;;;;;;;110307;1264;17593;-47
2022/07/05 01:02:01;;;;;;;;;25.00;24.33;;;;;;;;110355;1264;19248;-50
2022/07/05 01:04:28;;;;;;;;;23.00;21.50;;;;;;;;110316;1264;17510;-48
2022/07/05 01:06:55;;;;;;;;;26.67;25.33;;;;;;;;110282;1264;17550;-48
2022/07/05 01:09:22;;;;;;;;;25.33;25.00;;;;;;;;110312;1264;19279;-47
2022/07/05 01:11:50;;;;;;;;;23.00;23.00;;;;;;;;110281;1264;20459;-48
2022/07/05 01:14:17;;;;;;;;;23.33;22.00;;;;;;;;110282;1263;19515;-47
2022/07/05 01:16:44;;;;;;;;;24.33;24.00;;;;;;;;110358;1264;17640;-46
2022/07/05 01:19:12;;;;;;;;;27.50;26.00;;;;;;;;110296;1265;17728;-47
2022/07/05 01:21:40;;;;;;;;;28.50;26.50;;;;;;;;110278;1264;17531;-47
2022/07/05 01:24:07;;;;;;;;;28.33;27.00;;;;;;;;110311;1265;21502;-48
2022/07/05 01:26:34;;;;;;;;;31.00;29.00;;;;;;;;110298;1265;22192;-47
2022/07/05 01:29:01;;;;;;;;;28.33;28.33;;;;;;;;110342;1264;17841;-48
2022/07/05 01:31:29;;;;;;;;;28.67;26.00;;;;;;;;110296;1264;20891;-47
2022/07/05 01:33:56;;;;;;;;;27.67;26.33;;;;;;;;110309;1264;17536;-47
2022/07/05 01:36:23;;;;;;;;;26.33;25.67;;;;;;;;110329;1264;17384;-47
2022/07/05 01:38:50;;;;;;;;;28.33;26.67;;;;;;;;110291;1264;19926;-46
2022/07/05 01:41:18;;;;;;;;;28.67;27.00;;;;;;;;110308;1264;17499;-48
2022/07/05 01:43:45;;;;;;;;;26.33;26.33;;;;;;;;110326;1264;19449;-48
2022/07/05 01:46:12;;;;;;;;;28.00;27.33;;;;;;;;110312;1265;17954;-47
2022/07/05 01:48:40;;;;;;;;;31.67;29.67;;;;;;;;110306;1264;17422;-47
2022/07/05 01:51:07;;;;;;;;;42.33;37.67;;;;;;;;110302;1265;17493;-48
2022/07/05 01:53:34;;;;;;;;;39.00;37.00;;;;;;;;110294;1264;21579;-48
2022/07/05 01:56:02;;;;;;;;;38.67;36.00;;;;;;;;110358;1264;20024;-47
2022/07/05 01:58:29;;;;;;;;;36.00;34.00;;;;;;;;110307;1264;17509;-47
2022/07/05 02:00:56;;;;;;;;;43.00;37.33;;;;;;;;110310;1264;17893;-47
2022/07/05 02:03:24;;;;;;;;;37.67;34.00;;;;;;;;110263;1265;17633;-48
2022/07/05 02:05:52;;;;;;;;;34.33;32.67;;;;;;;;110292;1265;19356;-47
2022/07/05 02:08:19;;;;;;;;;33.67;30.00;;;;;;;;110237;1262;17790;-47
2022/07/05 02:10:46;;;;;;;;;34.00;32.00;;;;;;;;110160;1264;19334;-46
2022/07/05 02:13:14;;;;;;;;;34.33;33.00;;;;;;;;110239;1264;17470;-47
2022/07/05 02:15:42;;;;;;;;;34.67;32.00;;;;;;;;110292;1264;17687;-47
2022/07/05 02:18:09;;;;;;;;;54.33;43.67;;;;;;;;110237;1264;19225;-47
2022/07/05 02:20:36;;;;;;;;;79.33;62.67;;;;;;;;110317;1265;17620;-47
2022/07/05 02:23:03;;;;;;;;;77.50;60.00;;;;;;;;110340;1264;22225;-47
2022/07/05 02:25:31;;;;;;;;;71.00;56.33;;;;;;;;110276;1264;21943;-48
2022/07/05 02:27:58;;;;;;;;;68.50;55.00;;;;;;;;110272;1264;21506;-49
2022/07/05 02:30:25;;;;;;;;;60.33;50.67;;;;;;;;110310;1265;18102;-47
2022/07/05 02:32:52;;;;;;;;;58.00;47.67;;;;;;;;110292;1265;19069;-48
2022/07/05 02:35:20;;;;;;;;;56.00;44.00;;;;;;;;110300;1264;17690;-48
2022/07/05 02:37:47;;;;;;;;;46.00;41.67;;;;;;;;110372;1264;18092;-47
2022/07/05 02:40:15;;;;;;;;;47.00;41.50;;;;;;;;110313;1263;19310;-47
2022/07/05 02:42:42;;;;;;;;;46.67;42.00;;;;;;;;110271;1265;19229;-47
2022/07/05 02:45:09;;;;;;;;;40.00;38.00;;;;;;;;110332;1264;17837;-48
2022/07/05 02:47:36;;;;;;;;;39.67;37.33;;;;;;;;110278;1264;21524;-47
2022/07/05 02:50:04;;;;;;;;;39.00;34.33;;;;;;;;110350;1264;20221;-48
2022/07/05 02:52:31;;;;;;;;;40.00;37.00;;;;;;;;110308;1265;17787;-48
2022/07/05 02:54:58;;;;;;;;;36.33;35.00;;;;;;;;110296;1264;17529;-48
2022/07/05 02:57:25;;;;;;;;;35.67;34.00;;;;;;;;110298;1265;17697;-48
2022/07/05 02:59:53;;;;;;;;;38.00;36.00;;;;;;;;110298;1264;19863;-47
2022/07/05 03:02:20;;;;;;;;;38.67;32.67;;;;;;;;110313;1264;19680;-49
2022/07/05 03:04:47;;;;;;;;;36.67;32.67;;;;;;;;110336;1264;17633;-48
2022/07/05 03:07:15;;;;;;;;;38.67;37.00;;;;;;;;110302;1265;17750;-48
2022/07/05 03:09:42;;;;;;;;;49.00;42.67;;;;;;;;110327;1265;17505;-48
2022/07/05 03:12:09;;;;;;;;;59.00;46.33;;;;;;;;110311;1265;19223;-48
2022/07/05 03:14:37;;;;;;;;;56.33;45.67;;;;;;;;110321;1263;17637;-46
2022/07/05 03:17:04;;;;;;;;;44.67;40.00;;;;;;;;110346;1265;17390;-48
2022/07/05 03:19:31;;;;;;;;;46.00;40.00;;;;;;;;110274;1264;17478;-47
2022/07/05 03:21:59;;;;;;;;;48.33;40.67;;;;;;;;110311;1265;17776;-47
2022/07/05 03:24:26;;;;;;;;;46.67;37.33;;;;;;;;110314;1264;22869;-47
2022/07/05 03:26:53;;;;;;;;;40.33;37.00;;;;;;;;110291;1264;19414;-48
2022/07/05 03:29:20;;;;;;;;;37.33;35.00;;;;;;;;110324;1264;18092;-47
2022/07/05 03:31:47;;;;;;;;;34.67;32.67;;;;;;;;110345;1264;17595;-48
2022/07/05 03:34:15;;;;;;;;;32.00;31.00;;;;;;;;110315;1264;17431;-47
2022/07/05 03:36:42;;;;;;;;;33.00;30.50;;;;;;;;110344;1264;17859;-48
2022/07/05 03:39:09;;;;;;;;;35.00;32.00;;;;;;;;110312;1264;19462;-47
2022/07/05 03:41:36;;;;;;;;;31.50;29.00;;;;;;;;110320;1264;19675;-48
2022/07/05 03:44:04;;;;;;;;;35.00;35.00;;;;;;;;110321;1264;19180;-46
2022/07/05 03:46:31;;;;;;;;;40.00;36.67;;;;;;;;110283;1264;20623;-48
2022/07/05 03:48:58;;;;;;;;;48.50;41.00;;;;;;;;110267;1265;22150;-47
2022/07/05 03:51:26;;;;;;;;;47.67;41.00;;;;;;;;110219;1264;18577;-46
2022/07/05 03:53:53;;;;;;;;;53.00;43.00;;;;;;;;110326;1264;24032;-48
2022/07/05 03:56:23;;;;;;;;;51.33;41.67;;;;;;;;110303;1264;17827;-48
2022/07/05 03:58:50;;;;;;;;;46.33;40.00;;;;;;;;110335;1264;18449;-47
2022/07/05 04:01:17;;;;;;;;;43.50;39.50;;;;;;;;110312;1265;22142;-49
2022/07/05 04:03:44;;;;;;;;;40.50;37.00;;;;;;;;110292;1264;19241;-48
2022/07/05 04:06:11;;;;;;;;;35.50;30.50;;;;;;;;110257;1264;20214;-48
2022/07/05 04:08:39;;;;;;;;;36.67;31.67;;;;;;;;110281;1264;25049;-49
2022/07/05 04:11:07;;;;;;;;;36.50;34.00;;;;;;;;110327;1264;22013;-47
2022/07/05 04:13:35;;;;;;;;;35.67;32.67;;;;;;;;110236;1264;18027;-50
2022/07/05 04:16:02;;;;;;;;;32.67;30.67;;;;;;;;110256;1264;19610;-48
2022/07/05 04:18:29;;;;;;;;;32.33;29.67;;;;;;;;110282;1264;18732;-47
2022/07/05 04:20:56;;;;;;;;;35.33;28.67;;;;;;;;110234;1264;22385;-48
2022/07/05 04:23:24;;;;;;;;;34.33;30.67;;;;;;;;110260;1264;22396;-48
2022/07/05 04:25:51;;;;;;;;;29.00;26.00;;;;;;;;110275;1264;22023;-47
2022/07/05 04:28:18;;;;;;;;;31.00;28.00;;;;;;;;110226;1264;17659;-47
2022/07/05 04:30:45;;;;;;;;;38.33;34.00;;;;;;;;110192;1264;17583;-46
2022/07/05 04:33:13;;;;;;;;;31.00;28.67;;;;;;;;110280;1264;20416;-47
2022/07/05 04:35:40;;;;;;;;;34.00;32.67;;;;;;;;110297;1264;17943;-47
2022/07/05 04:38:07;;;;;;;;;37.33;32.67;;;;;;;;110337;1264;19400;-48
2022/07/05 04:40:34;;;;;;;;;36.50;33.50;;;;;;;;110267;1264;19777;-48
2022/07/05 04:43:02;;;;;;;;;29.67;27.67;;;;;;;;110243;1264;19848;-47
2022/07/05 04:45:29;;;;;;;;;30.00;27.67;;;;;;;;110283;1264;22074;-48
2022/07/05 04:47:56;;;;;;;;;28.00;27.00;;;;;;;;110317;1264;24879;-47
2022/07/05 04:50:23;;;;;;;;;27.67;27.00;;;;;;;;110294;1264;17773;-47
2022/07/05 04:52:50;;;;;;;;;29.50;27.50;;;;;;;;110354;1264;17856;-48
2022/07/05 04:55:18;;;;;;;;;30.00;27.00;;;;;;;;110259;1264;20540;-50
2022/07/05 04:57:45;;;;;;;;;30.00;29.00;;;;;;;;110213;1265;17656;-46
2022/07/05 05:00:13;;;;;;;;;28.00;26.33;;;;;;;;110237;1264;20175;-47
2022/07/05 05:02:40;;;;;;;;;23.00;22.67;;;;;;;;110250;1264;21423;-46
2022/07/05 05:05:07;;;;;;;;;24.00;22.67;;;;;;;;110335;1264;17834;-46
2022/07/05 05:07:37;;;;;;;;;22.33;21.33;;;;;;;;110243;1265;19416;-47
2022/07/05 05:10:04;;;;;;;;;22.67;22.00;;;;;;;;110295;1264;19110;-47
2022/07/05 05:12:31;;;;;;;;;20.33;19.67;;;;;;;;110252;1264;17725;-47
2022/07/05 05:14:59;;;;;;;;;21.33;18.67;;;;;;;;110309;1265;17461;-47
2022/07/05 05:17:26;;;;;;;;;27.00;23.33;;;;;;;;110285;1264;17417;-47
2022/07/05 05:19:53;;;;;;;;;25.33;25.00;;;;;;;;110206;1264;21401;-47
2022/07/05 05:22:55;;;;;;;;;21.67;19.00;;;;;23.23;59.18;101193.85;107305;1301;20517;-48
2022/07/05 05:25:22;;;;;;;;;24.33;23.00;;;;;23.18;58.63;101194.55;108625;1275;20019;-45
2022/07/05 05:27:50;;;;;;;;;28.00;24.00;;;;;;;;108585;1275;17640;-47
2022/07/05 05:30:17;;;;;;;;;28.00;21.33;;;;;;;;110188;1267;17501;-50
2022/07/05 05:32:44;;;;;;;;;23.67;22.67;;;;;;;;110031;1267;18887;-48
2022/07/05 05:36:28;;;;;;;;;24.00;22.50;;;;;24.21;57.69;101198.35;107529;1298;19246;-50
2022/07/05 05:38:55;;;;;;;;;19.33;18.33;;;;;23.92;56.25;101207.20;108672;1275;18546;-47
2022/07/05 05:41:22;;;;;;;;;20.00;19.00;;;;;23.71;56.98;101210.88;108748;1277;18837;-49
2022/07/05 05:43:50;;;;;;;;;14.00;13.67;;;;;;;;108643;1276;17487;-50
2022/07/05 05:46:17;;;;;;;;;14.00;13.00;;;;;;;;108635;1275;18820;-47
2022/07/05 05:48:44;;;;;;;;;17.00;15.00;;;;;;;;108592;1277;19125;-51
2022/07/05 05:51:11;;;;;;;;;16.50;15.00;;;;;;;;109354;1270;218553;-48
2022/07/05 05:53:39;;;;;;;;;17.00;17.00;;;;;;;;109526;1270;20402;-48
2022/07/05 05:56:06;;;;;;;;;21.00;19.67;;;;;;;;109553;1270;17221;-48
2022/07/05 05:58:33;;;;;;;;;24.00;23.33;;;;;;;;109537;1270;20218;-49
2022/07/05 06:01:01;;;;;;;;;21.67;19.67;;;;;;;;109513;1269;17504;-46
2022/07/05 06:03:28;;;;;;;;;18.33;18.00;;;;;;;;109447;1270;17419;-48
2022/07/05 06:05:55;;;;;;;;;21.67;19.67;;;;;;;;110120;1262;21366;-48
2022/07/05 06:08:23;;;;;;;;;18.67;18.00;;;;;;;;110320;1263;18024;-52
2022/07/05 06:10:50;;;;;;;;;22.00;21.00;;;;;;;;110320;1264;17347;-48
2022/07/05 06:13:17;;;;;;;;;22.00;19.00;;;;;;;;110272;1262;19194;-49
2022/07/05 06:15:45;;;;;;;;;17.33;17.33;;;;;;;;110254;1261;20187;-45
2022/07/05 06:18:12;;;;;;;;;18.33;17.67;;;;;;;;110264;1262;17345;-48
2022/07/05 06:20:39;;;;;;;;;18.00;17.33;;;;;;;;110170;1263;19161;-49
2022/07/05 06:23:07;;;;;;;;;20.33;17.67;;;;;;;;110306;1262;18456;-49
2022/07/05 06:25:34;;;;;;;;;19.00;16.00;;;;;;;;110177;1262;17422;-49
2022/07/05 06:28:01;;;;;;;;;17.00;16.67;;;;;;;;110108;1263;17460;-47
2022/07/05 06:30:28;;;;;;;;;17.50;16.50;;;;;;;;110277;1264;19909;-47
2022/07/05 06:32:56;;;;;;;;;31.00;26.33;;;;;;;;110297;1263;17310;-48
2022/07/05 06:35:23;;;;;;;;;25.33;23.67;;;;;;;;110280;1263;19189;-52
2022/07/05 06:37:51;;;;;;;;;21.67;19.67;;;;;;;;110301;1261;17488;-49
2022/07/05 06:40:18;;;;;;;;;21.67;20.33;;;;;;;;110266;1263;17399;-49
2022/07/05 06:42:46;;;;;;;;;16.00;14.00;;;;;;;;110272;1262;19223;-48
2022/07/05 06:45:13;;;;;;;;;13.00;13.00;;;;;;;;110261;1264;19891;-48
2022/07/05 06:47:40;;;;;;;;;17.33;15.33;;;;;;;;110277;1263;17333;-48
2022/07/05 06:50:07;;;;;;;;;13.33;13.33;;;;;;;;110279;1264;17479;-48
2022/07/05 06:52:34;;;;;;;;;13.00;12.00;;;;;;;;110245;1262;19085;-46
2022/07/05 06:55:02;;;;;;;;;11.00;11.00;;;;;;;;110272;1262;17495;-45
2022/07/05 06:57:29;;;;;;;;;11.33;11.33;;;;;;;;110262;1264;17398;-46
2022/07/05 06:59:56;;;;;;;;;11.67;9.00;;;;;;;;110326;1263;17976;-48
2022/07/05 07:02:24;;;;;;;;;9.00;8.00;;;;;;;;110303;1264;18988;-48
2022/07/05 07:04:51;;;;;;;;;10.00;10.00;;;;;;;;110311;1264;20098;-49
2022/07/05 07:10:04;;;;;;;;;9.00;8.67;;;;;;;;110284;1263;19132;-49
2022/07/05 07:12:31;;;;;;;;;9.67;8.33;;;;;;;;110265;1262;17291;-48
2022/07/05 07:14:58;;;;;;;;;10.00;8.00;;;;;;;;110239;1264;18227;-49
2022/07/05 07:17:25;;;;;;;;;9.00;9.00;;;;;;;;110234;1263;17350;-46
2022/07/05 07:19:53;;;;;;;;;8.00;8.00;;;;;;;;110307;1264;17804;-49
2022/07/05 07:22:20;;;;;;;;;7.00;6.33;;;;;;;;110239;1262;21342;-50
2022/07/05 07:24:47;;;;;;;;;9.00;8.33;;;;;;;;110210;1264;20533;-47
2022/07/05 07:27:15;;;;;;;;;8.33;8.33;;;;;;;;110258;1263;17467;-49
2022/07/05 07:29:42;;;;;;;;;7.33;6.67;;;;;;;;110234;1262;19692;-49
2022/07/05 07:32:09;;;;;;;;;8.00;8.00;;;;;;;;110199;1264;20263;-47
2022/07/05 07:34:37;;;;;;;;;8.00;7.33;;;;;;;;110214;1262;22551;-49
2022/07/05 07:37:04;;;;;;;;;7.00;7.00;;;;;;;;110247;1263;19924;-48
2022/07/05 07:39:32;;;;;;;;;8.00;7.00;;;;;;;;110228;1264;23331;-48
2022/07/05 07:41:59;;;;;;;;;9.00;8.00;;;;;;;;110241;1263;19216;-48
2022/07/05 07:44:26;;;;;;;;;8.00;8.00;;;;;;;;110272;1262;17592;-49
2022/07/05 07:46:53;;;;;;;;;7.67;7.67;;;;;;;;110344;1264;17305;-49
2022/07/05 07:49:21;;;;;;;;;8.00;8.00;;;;;;;;110300;1264;21838;-49
2022/07/05 07:51:48;;;;;;;;;8.00;8.00;;;;;;;;110276;1262;17535;-50
2022/07/05 07:54:15;;;;;;;;;8.00;8.00;;;;;;;;110252;1263;19176;-50
2022/07/05 07:56:42;;;;;;;;;8.67;8.67;;;;;;;;110308;1263;19283;-50
2022/07/05 07:59:10;;;;;;;;;8.00;8.00;;;;;;;;110362;1264;18207;-50
2022/07/05 08:01:37;;;;;;;;;8.00;8.00;;;;;;;;110282;1264;20463;-49
2022/07/05 08:04:04;;;;;;;;;6.00;6.00;;;;;;;;110248;1264;21791;-49
2022/07/05 08:06:31;;;;;;;;;7.00;7.00;;;;;;;;110224;1264;18860;-47
2022/07/05 08:08:59;;;;;;;;;8.00;8.00;;;;;;;;110307;1262;19254;-49
2022/07/05 08:11:26;;;;;;;;;9.67;8.67;;;;;;;;110264;1262;17346;-50
2022/07/05 08:13:53;;;;;;;;;8.67;7.67;;;;;;;;110316;1262;19207;-48
2022/07/05 08:16:20;;;;;;;;;7.00;7.00;;;;;;;;110254;1263;17369;-47
2022/07/05 08:21:34;;;;;;;;;6.50;6.50;;;;;;;;110283;1264;22049;-49
2022/07/05 08:24:02;;;;;;;;;6.00;6.00;;;;;;;;110299;1262;17353;-49
2022/07/05 08:26:30;;;;;;;;;8.00;8.00;;;;;;;;110244;1263;17301;-48
2022/07/05 08:28:58;;;;;;;;;9.33;7.67;;;;;;;;110301;1264;17815;-49
2022/07/05 08:31:25;;;;;;;;;6.67;6.33;;;;;;;;110272;1262;17320;-53
2022/07/05 08:33:52;;;;;;;;;6.67;6.67;;;;;;;;110271;1264;17292;-49
2022/07/05 08:36:20;;;;;;;;;6.00;6.00;;;;;;;;110305;1264;20212;-49
2022/07/05 08:38:47;;;;;;;;;8.00;8.00;;;;;;;;110346;1261;17378;-55
2022/07/05 08:41:14;;;;;;;;;7.33;7.00;;;;;;;;110301;1263;17425;-46
2022/07/05 08:43:41;;;;;;;;;7.00;7.00;;;;;;;;110297;1262;19731;-51
2022/07/05 08:46:10;;;;;;;;;6.67;6.67;;;;;;;;110313;1262;17438;-48
2022/07/05 08:48:41;;;;;;;;;6.33;6.33;;;;;;;;110297;1262;18008;-48
2022/07/05 08:51:09;;;;;;;;;7.33;7.33;;;;;;;;110310;1262;17747;-49
2022/07/05 08:53:36;;;;;;;;;8.33;8.00;;;;;;;;110326;1262;18622;-47
2022/07/05 08:56:03;;;;;;;;;7.33;7.33;;;;;;;;110307;1263;17267;-50
2022/07/05 08:58:31;;;;;;;;;14.33;13.33;;;;;;;;110290;1262;19486;-50
2022/07/05 09:00:58;;;;;;;;;13.00;10.00;;;;;;;;110318;1262;18414;-48
2022/07/05 09:03:26;;;;;;;;;8.00;7.00;;;;;;;;110244;1264;18146;-47
2022/07/05 09:05:56;;;;;;;;;8.00;7.00;;;;;;;;110283;1263;17698;-49
2022/07/05 09:08:23;;;;;;;;;7.00;7.00;;;;;;;;110353;1264;17364;-49
2022/07/05 09:10:50;;;;;;;;;9.00;8.33;;;;;;;;110260;1264;19348;-47
2022/07/05 09:13:18;;;;;;;;;7.00;7.00;;;;;;;;110233;1263;19765;-52
2022/07/05 09:15:45;;;;;;;;;7.67;7.00;;;;;;;;110160;1264;19608;-47
2022/07/05 09:18:12;;;;;;;;;8.33;8.00;;;;;;;;110102;1263;18202;-49
2022/07/05 09:20:39;;;;;;;;;8.00;7.33;;;;;;;;110099;1264;21239;-48
2022/07/05 09:23:08;;;;;;;;;10.00;9.67;;;;;;;;110277;1264;17876;-49
2022/07/05 09:25:35;;;;;;;;;8.00;8.00;;;;;;;;110182;1264;19337;-48
2022/07/05 09:28:02;;;;;;;;;7.00;7.00;;;;;;;;110284;1262;17856;-49
2022/07/05 09:30:30;;;;;;;;;8.00;8.00;;;;;;;;110227;1262;19185;-48
2022/07/05 09:32:57;;;;;;;;;8.00;8.00;;;;;;;;110178;1264;17374;-48
2022/07/05 09:35:24;;;;;;;;;8.00;8.00;;;;;;;;110323;1264;19846;-51
2022/07/05 09:37:51;;;;;;;;;8.00;8.00;;;;;;;;110281;1264;23056;-49
2022/07/05 09:40:19;;;;;;;;;8.00;8.00;;;;;;;;110159;1264;19003;-49
2022/07/05 09:42:46;;;;;;;;;13.00;12.33;;;;;;;;110209;1262;19216;-49
2022/07/05 09:45:13;;;;;;;;;12.00;9.67;;;;;;;;110190;1263;17287;-49
2022/07/05 09:47:40;;;;;;;;;9.00;9.00;;;;;;;;110257;1262;19336;-48
2022/07/05 09:50:09;;;;;;;;;8.33;8.33;;;;;;;;110320;1264;17719;-47
2022/07/05 09:52:37;;;;;;;;;7.00;7.00;;;;;;;;110272;1263;17880;-50
2022/07/05 09:55:04;;;;;;;;;24.00;22.50;;;;;;;;110271;1264;22363;-49
2022/07/05 09:57:31;;;;;;;;;14.00;13.00;;;;;;;;110230;1263;20126;-49
2022/07/05 09:59:58;;;;;;;;;10.50;10.00;;;;;;;;110212;1262;17679;-49
2022/07/05 10:02:26;;;;;;;;;9.00;8.00;;;;;;;;110174;1264;19566;-52
2022/07/05 10:04:53;;;;;;;;;7.00;7.00;;;;;;;;110213;1263;17946;-47
2022/07/05 10:07:20;;;;;;;;;11.67;11.00;;;;;;;;110208;1262;17902;-49
2022/07/05 10:09:47;;;;;;;;;8.00;8.00;;;;;;;;110191;1262;17934;-48
2022/07/05 10:12:15;;;;;;;;;8.67;8.00;;;;;;;;110175;1264;18603;-48
2022/07/05 10:14:42;;;;;;;;;8.00;8.00;;;;;;;;110231;1262;18760;-46
2022/07/05 10:17:09;;;;;;;;;8.67;8.67;;;;;;;;110236;1264;19345;-48
2022/07/05 10:19:36;;;;;;;;;8.00;8.00;;;;;;;;110188;1264;18644;-50
2022/07/05 10:22:04;;;;;;;;;7.00;5.00;;;;;;;;110183;1264;17625;-47
2022/07/05 10:24:31;;;;;;;;;9.00;8.00;;;;;;;;110212;1264;19483;-47
2022/07/05 10:26:58;;;;;;;;;7.00;7.00;;;;;;;;110177;1262;18073;-50
2022/07/05 10:29:25;;;;;;;;;8.00;8.00;;;;;;;;110233;1263;21380;-51
2022/07/05 10:31:53;;;;;;;;;8.00;7.00;;;;;;;;110265;1263;17430;-50
2022/07/05 10:34:20;;;;;;;;;7.67;7.67;;;;;;;;110206;1263;17759;-49
2022/07/05 10:36:47;;;;;;;;;8.00;8.00;;;;;;;;110200;1264;20904;-48
2022/07/05 10:39:14;;;;;;;;;7.67;6.67;;;;;;;;110189;1263;17417;-48
2022/07/05 10:41:42;;;;;;;;;7.33;7.33;;;;;;;;110134;1262;21844;-51
2022/07/05 10:44:09;;;;;;;;;7.00;7.00;;;;;;;;110246;1263;17490;-47
2022/07/05 10:46:36;;;;;;;;;5.33;5.33;;;;;;;;110216;1262;19857;-49
2022/07/05 10:49:04;;;;;;;;;5.33;5.33;;;;;;;;110211;1262;19197;-48
2022/07/05 10:51:31;;;;;;;;;7.00;7.00;;;;;;;;110171;1264;20950;-47
2022/07/05 10:53:58;;;;;;;;;8.00;7.00;;;;;;;;110176;1263;17610;-47
2022/07/05 10:56:25;;;;;;;;;7.33;7.33;;;;;;;;110222;1264;17803;-51
2022/07/05 10:58:53;;;;;;;;;7.67;7.67;;;;;;;;110176;1264;23049;-46
2022/07/05 11:01:20;;;;;;;;;7.00;7.00;;;;;;;;110178;1263;19796;-48
2022/07/05 11:03:47;;;;;;;;;7.00;7.00;;;;;;;;110197;1263;17965;-44
2022/07/05 11:06:14;;;;;;;;;7.00;5.67;;;;;;;;110233;1262;22001;-46
2022/07/05 11:08:42;;;;;;;;;7.00;7.00;;;;;;;;110271;1262;17580;-48
2022/07/05 11:11:09;;;;;;;;;7.00;7.00;;;;;;;;110298;1263;19379;-48
2022/07/05 11:13:36;;;;;;;;;8.00;8.00;;;;;;;;110181;1262;19935;-48
2022/07/05 11:16:03;;;;;;;;;9.00;8.00;;;;;;;;110270;1264;22049;-47
2022/07/05 11:18:30;;;;;;;;;9.00;9.00;;;;;;;;110217;1263;17861;-48
2022/07/05 11:20:58;;;;;;;;;8.00;8.00;;;;;;;;110174;1263;20431;-49
2022/07/05 11:23:25;;;;;;;;;7.00;7.00;;;;;;;;110309;1262;17360;-51
2022/07/05 11:25:52;;;;;;;;;7.67;7.67;;;;;;;;110255;1262;24150;-48
2022/07/05 11:28:22;;;;;;;;;7.00;7.00;;;;;;;;110287;1262;19678;-48
2022/07/05 11:30:49;;;;;;;;;7.50;7.00;;;;;;;;110260;1264;17781;-46
2022/07/05 11:33:16;;;;;;;;;7.50;7.50;;;;;;;;110301;1263;19345;-48
2022/07/05 11:35:43;;;;;;;;;8.67;8.00;;;;;;;;110288;1263;17451;-48
2022/07/05 11:38:12;;;;;;;;;8.00;7.33;;;;;;;;110290;1262;17392;-49
2022/07/05 11:40:40;;;;;;;;;6.50;6.50;;;;;;;;110258;1263;19696;-51
2022/07/05 11:43:08;;;;;;;;;5.00;5.00;;;;;;;;110315;1263;17545;-49
2022/07/05 11:45:35;;;;;;;;;8.00;7.00;;;;;;;;110284;1262;17415;-48
2022/07/05 11:48:02;;;;;;;;;7.00;7.00;;;;;;;;110300;1264;17537;-48
2022/07/05 11:50:30;;;;;;;;;7.00;7.00;;;;;;;;110239;1261;17392;-47
2022/07/05 11:52:57;;;;;;;;;5.00;5.00;;;;;;;;110296;1264;19111;-47
2022/07/05 11:55:24;;;;;;;;;10.00;9.00;;;;;;;;110124;1262;17923;-50
2022/07/05 11:57:52;;;;;;;;;5.00;5.00;;;;;;;;110096;1264;22473;-46
2022/07/05 12:00:19;;;;;;;;;7.00;7.00;;;;;;;;110281;1263;21823;-50
2022/07/05 12:02:46;;;;;;;;;7.33;7.33;;;;;;;;110291;1262;17636;-49
2022/07/05 12:05:13;;;;;;;;;7.67;7.67;;;;;;;;110327;1264;19181;-49
2022/07/05 12:07:41;;;;;;;;;8.00;7.00;;;;;;;;110273;1262;19358;-49
2022/07/05 12:12:53;;;;;;;;;8.00;7.00;;;;;;;;110230;1264;21928;-48
2022/07/05 12:15:20;;;;;;;;;7.33;7.00;;;;;;;;110256;1264;18105;-43
2022/07/05 12:17:48;;;;;;;;;9.00;7.67;;;;;;;;110295;1264;18241;-46
2022/07/05 12:20:15;;;;;;;;;9.00;9.00;;;;;;;;110308;1263;22103;-49
2022/07/05 12:22:42;;;;;;;;;7.33;7.33;;;;;;;;110248;1264;19186;-49
2022/07/05 12:25:09;;;;;;;;;7.00;7.00;;;;;;;;110218;1264;17855;-50
2022/07/05 12:27:37;;;;;;;;;8.00;8.00;;;;;;;;110231;1263;17586;-49
2022/07/05 12:30:05;;;;;;;;;9.00;8.00;;;;;;;;110236;1263;17488;-50
2022/07/05 12:32:32;;;;;;;;;9.00;9.00;;;;;;;;110156;1264;22164;-50
2022/07/05 12:35:01;;;;;;;;;8.67;8.33;;;;;;;;110166;1264;17465;-49
2022/07/05 12:37:31;;;;;;;;;9.00;9.00;;;;;;;;110203;1264;17367;-47
2022/07/05 12:39:58;;;;;;;;;8.67;8.67;;;;;;;;110191;1264;17854;-48
2022/07/05 12:42:32;;;;;;;;;7.33;7.33;;;;;;;;110100;1265;17509;-50
2022/07/05 12:44:59;;;;;;;;;8.00;8.00;;;;;;;;110307;1264;17642;-51
2022/07/05 12:47:26;;;;;;;;;9.00;9.00;;;;;;;;110315;1264;20023;-48
2022/07/05 12:49:54;;;;;;;;;9.33;9.33;;;;;;;;110292;1264;17378;-48
2022/07/05 12:52:21;;;;;;;;;8.67;8.67;;;;;;;;110197;1264;18904;-50
2022/07/05 13:00:18;;;;;;;;;9.50;9.50;;;;;;;;110288;1264;19418;-49
2022/07/05 13:02:45;;;;;;;;;8.00;7.00;;;;;;;;110249;1264;17636;-48
2022/07/05 13:05:13;;;;;;;;;9.00;9.00;;;;;;;;110336;1265;19139;-49
2022/07/05 13:07:40;;;;;;;;;9.00;9.00;;;;;;;;110288;1264;17624;-50
2022/07/05 13:10:07;;;;;;;;;9.00;9.00;;;;;;;;110252;1264;17803;-48
2022/07/05 13:12:35;;;;;;;;;7.00;7.00;;;;;;;;110193;1262;19284;-49
2022/07/05 13:15:02;;;;;;;;;8.00;8.00;;;;;;;;110243;1264;17513;-50
2022/07/05 13:17:29;;;;;;;;;7.00;7.00;;;;;;;;110121;1264;17968;-49
2022/07/05 13:19:57;;;;;;;;;8.67;8.00;;;;;;;;110160;1264;17572;-49
2022/07/05 13:22:24;;;;;;;;;12.00;10.00;;;;;;;;110160;1264;21282;-49
2022/07/05 13:24:51;;;;;;;;;10.67;9.33;;;;;;;;110288;1264;17931;-51
2022/07/05 13:27:18;;;;;;;;;8.00;7.00;;;;;;;;110188;1264;23040;-49
2022/07/05 13:29:46;;;;;;;;;7.00;7.00;;;;;;;;110281;1264;19385;-50
2022/07/05 13:32:15;;;;;;;;;8.00;8.00;;;;;;;;110288;1264;18213;-49
2022/07/05 13:34:42;;;;;;;;;12.00;12.00;;;;;;;;110287;1264;18128;-48
2022/07/05 13:37:09;;;;;;;;;17.00;14.00;;;;;;;;110273;1264;17447;-49
2022/07/05 13:39:37;;;;;;;;;9.67;9.67;;;;;;;;110258;1265;18041;-50
2022/07/05 13:42:05;;;;;;;;;8.67;8.00;;;;;;;;110227;1265;17604;-48
2022/07/05 13:44:32;;;;;;;;;9.00;8.33;;;;;;;;110267;1264;17540;-51
2022/07/05 13:47:00;;;;;;;;;9.00;9.00;;;;;;;;110240;1263;17601;-48
2022/07/05 13:49:27;;;;;;;;;7.00;7.00;;;;;;;;110361;1261;19200;-47
2022/07/05 13:51:54;;;;;;;;;6.00;6.00;;;;;;;;110407;1262;17321;-49
2022/07/05 13:54:21;;;;;;;;;9.00;8.00;;;;;;;;110324;1261;19915;-48
2022/07/05 13:56:48;;;;;;;;;8.00;7.00;;;;;;;;110260;1262;17525;-50
2022/07/05 13:59:16;;;;;;;;;8.00;7.33;;;;;;;;110363;1262;22419;-49
2022/07/05 14:01:43;;;;;;;;;8.50;8.00;;;;;;;;110361;1261;21276;-50
2022/07/05 14:04:10;;;;;;;;;8.00;8.00;;;;;;;;110471;1261;17782;-48
2022/07/05 14:06:37;;;;;;;;;7.00;7.00;;;;;;;;110391;1262;17619;-50
2022/07/05 14:09:05;;;;;;;;;7.00;6.33;;;;;;;;110327;1262;17770;-48
2022/07/05 14:11:32;;;;;;;;;7.67;7.67;;;;;;;;110352;1262;17512;-49
2022/07/05 14:13:59;;;;;;;;;8.00;8.00;;;;;;;;110396;1261;17327;-49
2022/07/05 14:16:26;;;;;;;;;7.00;7.00;;;;;;;;110371;1262;19207;-51
2022/07/05 14:18:56;;;;;;;;;7.67;7.67;;;;;;;;110372;1262;17403;-49
2022/07/05 14:21:23;;;;;;;;;8.00;8.00;;;;;;;;110365;1262;19025;-49
2022/07/05 14:23:50;;;;;;;;;8.00;8.00;;;;;;;;110218;1264;17955;-48
2022/07/05 14:26:17;;;;;;;;;8.00;8.00;;;;;;;;110391;1262;21939;-49
2022/07/05 14:28:45;;;;;;;;;8.00;8.00;;;;;;;;110421;1262;19307;-51